createdAt,value
2022-10-23T00:01:46.688Z,81.10
2022-10-23T00:04:17.080Z,81.08
2022-10-23T00:06:48.240Z,81.05
2022-10-23T00:09:21.524Z,80.90
2022-10-23T00:11:54.770Z,81.06
2022-10-23T00:14:25.590Z,80.51
2022-10-23T00:16:56.047Z,80.71
2022-10-23T00:19:24.331Z,80.58
2022-10-23T00:21:52.391Z,80.37
2022-10-23T00:24:26.266Z,80.47
2022-10-23T00:26:55.715Z,80.56
2022-10-23T00:29:29.228Z,80.65
2022-10-23T00:31:57.386Z,80.88
2022-10-23T00:34:25.141Z,80.47
2022-10-23T00:36:55.347Z,80.47
2022-10-23T00:39:23.833Z,80.46
2022-10-23T00:41:51.947Z,80.34
2022-10-23T00:45:00.954Z,80.54
2022-10-23T00:47:30.150Z,80.48
2022-10-23T00:50:00.338Z,80.94
2022-10-23T00:52:28.911Z,80.45
2022-10-23T00:54:57.891Z,80.59
2022-10-23T00:57:26.082Z,80.36
2022-10-23T00:59:54.201Z,80.27
2022-10-23T01:02:25.917Z,80.25
2022-10-23T01:04:55.119Z,80.40
2022-10-23T01:07:30.397Z,80.25
2022-10-23T01:10:07.050Z,80.29
2022-10-23T01:12:45.449Z,80.31
2022-10-23T01:15:20.776Z,80.64
2022-10-23T01:17:55.247Z,80.37
2022-10-23T01:20:38.397Z,80.83
2022-10-23T01:23:23.756Z,80.57
2022-10-23T01:26:07.854Z,80.32
2022-10-23T01:28:43.548Z,80.56
2022-10-23T01:31:17.415Z,80.84
2022-10-23T01:33:49.988Z,80.71
2022-10-23T01:36:30.432Z,80.69
2022-10-23T01:41:37.494Z,80.60
2022-10-23T01:44:12.271Z,80.44
2022-10-23T01:46:41.292Z,80.63
2022-10-23T01:49:13.588Z,80.97
2022-10-23T01:51:46.779Z,80.94
2022-10-23T01:54:17.844Z,80.66
2022-10-23T01:56:50.562Z,81.02
2022-10-23T01:59:32.144Z,81.05
2022-10-23T02:02:02.003Z,80.70
2022-10-23T02:04:39.299Z,81.14
2022-10-23T02:07:08.169Z,80.97
2022-10-23T02:09:36.635Z,80.88
2022-10-23T02:12:08.863Z,81.04
2022-10-23T02:14:52.423Z,81.07
2022-10-23T02:17:27.761Z,81.18
2022-10-23T02:20:06.897Z,81.27
2022-10-23T02:22:39.902Z,80.75
2022-10-23T02:25:12.169Z,80.71
2022-10-23T02:27:46.190Z,80.99
2022-10-23T02:30:18.684Z,80.87
2022-10-23T02:32:55.848Z,80.97
2022-10-23T02:35:27.256Z,80.92
2022-10-23T02:38:04.685Z,80.85
2022-10-23T02:40:39.923Z,80.80
2022-10-23T02:43:15.268Z,80.85
2022-10-23T02:45:53.728Z,80.93
2022-10-23T02:48:28.068Z,81.15
2022-10-23T02:51:04.082Z,80.76
2022-10-23T02:53:40.313Z,81.20
2022-10-23T02:56:13.958Z,81.01
2022-10-23T02:58:49.612Z,80.89
2022-10-23T03:01:23.997Z,81.17
2022-10-23T03:03:54.575Z,81.14
2022-10-23T03:06:24.901Z,80.96
2022-10-23T03:09:08.455Z,81.28
2022-10-23T03:11:38.720Z,81.30
2022-10-23T03:14:06.643Z,81.17
2022-10-23T03:16:35.902Z,81.34
2022-10-23T03:19:03.846Z,81.73
2022-10-23T03:21:32.367Z,81.61
2022-10-23T03:24:02.460Z,81.59
2022-10-23T03:26:36.333Z,81.42
2022-10-23T03:29:05.363Z,81.39
2022-10-23T03:31:38.867Z,81.40
2022-10-23T03:34:11.041Z,81.40
2022-10-23T03:36:41.215Z,81.49
2022-10-23T03:39:12.851Z,81.57
2022-10-23T03:41:43.850Z,81.72
2022-10-23T03:44:25.932Z,81.88
2022-10-23T03:46:57.674Z,81.42
2022-10-23T03:49:25.979Z,81.75
2022-10-23T03:54:36.368Z,82.14
2022-10-23T03:57:04.622Z,82.36
2022-10-23T03:59:32.811Z,82.32
2022-10-23T04:02:04.895Z,82.07
2022-10-23T04:04:35.874Z,82.30
2022-10-23T04:07:03.767Z,82.40
2022-10-23T04:09:42.926Z,82.65
2022-10-23T04:12:16.183Z,82.69
2022-10-23T04:14:44.889Z,82.91
2022-10-23T04:17:14.166Z,82.75
2022-10-23T04:19:43.820Z,82.83
2022-10-23T04:22:11.624Z,82.51
2022-10-23T04:24:45.361Z,82.31
2022-10-23T04:27:18.179Z,82.85
2022-10-23T04:29:54.255Z,83.10
2022-10-23T04:32:26.129Z,82.61
2022-10-23T04:34:55.837Z,82.78
2022-10-23T04:37:23.967Z,82.49
2022-10-23T04:39:51.927Z,82.97
2022-10-23T04:42:19.836Z,83.08
2022-10-23T04:44:48.686Z,82.80
2022-10-23T04:47:16.624Z,83.51
2022-10-23T04:49:58.686Z,83.01
2022-10-23T04:52:57.875Z,82.74
2022-10-23T04:55:59.067Z,83.60
2022-10-23T04:58:36.271Z,83.14
2022-10-23T05:01:07.310Z,83.19
2022-10-23T05:03:36.673Z,83.45
2022-10-23T05:06:06.649Z,83.17
2022-10-23T05:08:52.908Z,83.48
2022-10-23T05:11:50.174Z,83.02
2022-10-23T05:14:25.299Z,83.42
2022-10-23T05:16:58.457Z,82.75
2022-10-23T05:19:38.770Z,82.89
2022-10-23T05:22:08.385Z,83.11
2022-10-23T05:25:03.069Z,82.56
2022-10-23T05:27:32.968Z,82.94
2022-10-23T05:30:00.826Z,83.48
2022-10-23T05:32:33.275Z,83.06
2022-10-23T05:35:04.002Z,83.04
2022-10-23T05:37:33.824Z,83.25
2022-10-23T05:40:10.453Z,83.05
2022-10-23T05:42:41.709Z,82.69
2022-10-23T05:45:12.175Z,83.13
2022-10-23T05:48:10.786Z,82.62
2022-10-23T05:51:06.309Z,83.58
2022-10-23T05:53:54.398Z,83.37
2022-10-23T05:56:41.488Z,83.15
2022-10-23T05:59:28.007Z,83.35
2022-10-23T06:02:14.088Z,82.83
2022-10-23T06:04:51.320Z,83.06
2022-10-23T06:07:50.704Z,83.10
2022-10-23T06:10:24.141Z,83.31
2022-10-23T06:12:54.367Z,83.07
2022-10-23T06:15:32.615Z,83.12
2022-10-23T06:18:20.726Z,82.83
2022-10-23T06:21:04.456Z,82.46
2022-10-23T06:23:33.045Z,83.28
2022-10-23T06:26:21.101Z,83.21
2022-10-23T06:29:12.239Z,82.86
2022-10-23T06:31:47.352Z,82.24
2022-10-23T06:34:17.935Z,82.73
2022-10-23T06:36:47.161Z,82.85
2022-10-23T06:39:33.504Z,82.18
2022-10-23T06:42:23.299Z,82.01
2022-10-23T06:45:07.234Z,82.24
2022-10-23T06:47:44.346Z,82.20
2022-10-23T06:50:48.470Z,82.28
2022-10-23T06:53:23.627Z,82.34
2022-10-23T06:56:00.415Z,82.49
2022-10-23T06:58:29.840Z,82.31
2022-10-23T07:01:08.668Z,82.23
2022-10-23T07:03:36.701Z,82.05
2022-10-23T07:06:09.989Z,82.40
2022-10-23T07:08:38.953Z,81.97
2022-10-23T07:11:31.960Z,81.92
2022-10-23T07:14:15.892Z,82.63
2022-10-23T07:16:43.984Z,82.31
2022-10-23T07:19:14.361Z,81.93
2022-10-23T07:21:53.946Z,82.49
2022-10-23T07:24:49.176Z,81.86
2022-10-23T07:27:41.830Z,81.67
2022-10-23T07:30:18.554Z,81.85
2022-10-23T07:32:51.551Z,81.68
2022-10-23T07:35:40.198Z,81.53
2022-10-23T07:38:15.008Z,81.51
2022-10-23T07:40:46.898Z,81.35
2022-10-23T07:43:18.465Z,81.68
2022-10-23T07:45:51.327Z,81.69
2022-10-23T07:48:51.494Z,81.58
2022-10-23T07:51:19.419Z,81.46
2022-10-23T07:53:51.438Z,81.44
2022-10-23T07:56:32.689Z,81.63
2022-10-23T07:59:20.753Z,81.21
2022-10-23T08:01:56.807Z,81.45
2022-10-23T08:04:36.154Z,80.84
2022-10-23T08:10:03.133Z,81.26
2022-10-23T08:12:34.372Z,80.81
2022-10-23T08:15:05.126Z,80.73
2022-10-23T08:17:50.271Z,80.67
2022-10-23T08:20:26.929Z,80.47
2022-10-23T08:22:57.751Z,80.13
2022-10-23T08:25:26.931Z,80.37
2022-10-23T08:28:27.820Z,79.93
2022-10-23T08:30:57.110Z,80.05
2022-10-23T08:33:35.677Z,80.00
2022-10-23T08:38:53.551Z,80.05
2022-10-23T08:41:28.466Z,79.97
2022-10-23T08:44:14.475Z,79.42
2022-10-23T08:47:12.609Z,79.42
2022-10-23T08:50:32.125Z,79.36
2022-10-23T08:53:13.308Z,79.41
2022-10-23T08:55:48.359Z,79.76
2022-10-23T08:58:19.681Z,79.36
2022-10-23T09:00:51.065Z,79.67
2022-10-23T09:03:19.522Z,79.46
2022-10-23T09:06:01.005Z,79.29
2022-10-23T09:08:48.292Z,78.88
2022-10-23T09:11:23.195Z,79.02
2022-10-23T09:14:16.698Z,78.67
2022-10-23T09:17:08.316Z,78.26
2022-10-23T09:19:39.337Z,78.78
2022-10-23T09:22:11.961Z,78.13
2022-10-23T09:24:44.036Z,78.67
2022-10-23T09:27:18.158Z,78.61
2022-10-23T09:29:54.256Z,78.41
2022-10-23T09:32:34.149Z,77.90
2022-10-23T09:35:02.108Z,77.98
2022-10-23T09:37:33.183Z,78.22
2022-10-23T09:40:20.895Z,78.61
2022-10-23T09:42:58.340Z,78.13
2022-10-23T09:45:34.416Z,78.32
2022-10-23T09:48:19.146Z,78.05
2022-10-23T09:50:52.422Z,78.55
2022-10-23T09:53:44.252Z,78.02
2022-10-23T09:56:29.759Z,78.17
2022-10-23T09:58:59.881Z,77.91
2022-10-23T10:01:33.801Z,78.15
2022-10-23T10:04:35.680Z,78.14
2022-10-23T10:07:19.771Z,77.85
2022-10-23T10:09:49.242Z,77.64
2022-10-23T10:12:44.315Z,78.33
2022-10-23T10:15:18.019Z,77.68
2022-10-23T10:18:00.473Z,77.99
2022-10-23T10:21:03.824Z,77.82
2022-10-23T10:23:41.412Z,77.82
2022-10-23T10:26:20.667Z,77.63
2022-10-23T10:29:06.853Z,77.84
2022-10-23T10:31:57.435Z,78.18
2022-10-23T10:34:32.954Z,77.90
2022-10-23T10:37:12.774Z,77.53
2022-10-23T10:39:50.036Z,77.52
2022-10-23T10:42:47.781Z,77.16
2022-10-23T10:45:32.330Z,77.21
2022-10-23T10:48:42.015Z,77.08
2022-10-23T10:51:57.457Z,77.16
2022-10-23T10:54:45.463Z,76.89
2022-10-23T10:57:27.529Z,76.84
2022-10-23T11:00:03.190Z,76.59
2022-10-23T11:02:39.722Z,76.28
2022-10-23T11:05:19.928Z,76.24
2022-10-23T11:07:56.428Z,76.15
2022-10-23T11:10:24.522Z,75.88
2022-10-23T11:12:53.358Z,75.67
2022-10-23T11:15:29.380Z,75.90
2022-10-23T11:18:00.706Z,76.07
2022-10-23T11:21:09.351Z,75.68
2022-10-23T11:24:11.748Z,75.80
2022-10-23T11:26:52.842Z,75.37
2022-10-23T11:29:51.782Z,75.25
2022-10-23T11:32:43.730Z,74.77
2022-10-23T11:35:41.102Z,74.91
2022-10-23T11:38:18.687Z,74.80
2022-10-23T11:40:55.189Z,74.56
2022-10-23T11:43:30.992Z,74.98
2022-10-23T11:46:36.299Z,75.21
2022-10-23T11:49:06.930Z,75.31
2022-10-23T11:51:38.719Z,74.89
2022-10-23T11:54:24.379Z,74.77
2022-10-23T11:57:10.863Z,74.74
2022-10-23T12:00:01.773Z,74.59
2022-10-23T12:02:33.704Z,74.75
2022-10-23T12:05:07.322Z,74.81
2022-10-23T12:07:41.709Z,74.32
2022-10-23T12:10:24.844Z,74.21
2022-10-23T12:13:11.617Z,74.16
2022-10-23T12:15:39.715Z,73.56
2022-10-23T12:18:15.848Z,73.03
2022-10-23T12:21:00.085Z,73.30
2022-10-23T12:23:50.898Z,73.40
2022-10-23T12:26:27.765Z,73.30
2022-10-23T12:29:12.120Z,73.56
2022-10-23T12:31:48.029Z,71.88
2022-10-23T12:34:30.906Z,73.21
2022-10-23T12:37:13.544Z,73.85
2022-10-23T12:39:44.410Z,74.05
2022-10-23T12:42:18.330Z,74.21
2022-10-23T12:44:45.986Z,71.93
2022-10-23T12:47:19.697Z,73.44
2022-10-23T12:49:50.465Z,73.57
2022-10-23T12:52:24.532Z,73.62
2022-10-23T12:54:52.410Z,73.77
2022-10-23T12:57:22.952Z,74.27
2022-10-23T12:59:54.289Z,74.58
2022-10-23T13:02:25.865Z,74.86
2022-10-23T13:04:55.462Z,74.83
2022-10-23T13:07:28.248Z,74.76
2022-10-23T13:09:59.532Z,74.88
2022-10-23T13:12:34.478Z,74.90
2022-10-23T13:15:14.774Z,74.82
2022-10-23T13:18:09.080Z,74.01
2022-10-23T13:20:39.444Z,74.61
2022-10-23T13:23:31.080Z,74.42
2022-10-23T13:26:00.982Z,74.26
2022-10-23T13:28:30.715Z,74.42
2022-10-23T13:31:03.748Z,74.34
2022-10-23T13:33:39.164Z,74.32
2022-10-23T13:36:25.263Z,74.01
2022-10-23T13:39:04.933Z,74.07
2022-10-23T13:41:39.500Z,74.27
2022-10-23T13:44:08.176Z,74.25
2022-10-23T13:46:38.380Z,74.34
2022-10-23T13:49:06.373Z,74.36
2022-10-23T13:51:43.600Z,74.29
2022-10-23T13:54:17.133Z,74.27
2022-10-23T13:56:45.408Z,74.26
2022-10-23T13:59:13.680Z,74.50
2022-10-23T14:01:46.190Z,74.57
2022-10-23T14:04:26.210Z,74.52
2022-10-23T14:06:58.466Z,74.64
2022-10-23T14:09:30.294Z,74.50
2022-10-23T14:11:58.106Z,74.36
2022-10-23T14:14:25.904Z,74.40
2022-10-23T14:16:55.082Z,74.53
2022-10-23T14:19:25.067Z,74.38
2022-10-23T14:21:53.224Z,74.59
2022-10-23T14:24:26.687Z,74.42
2022-10-23T14:26:57.499Z,74.30
2022-10-23T14:29:27.733Z,74.24
2022-10-23T14:31:57.644Z,74.19
2022-10-23T14:34:26.228Z,74.06
2022-10-23T14:37:08.935Z,74.02
2022-10-23T14:39:37.386Z,73.95
2022-10-23T14:42:06.806Z,74.01
2022-10-23T14:44:34.619Z,74.14
2022-10-23T14:47:03.115Z,74.27
2022-10-23T14:49:32.452Z,74.44
2022-10-23T14:52:02.404Z,74.47
2022-10-23T14:54:34.481Z,74.71
2022-10-23T14:57:02.274Z,74.62
2022-10-23T14:59:39.402Z,74.79
2022-10-23T15:02:09.634Z,74.84
2022-10-23T15:04:37.421Z,74.92
2022-10-23T15:07:05.304Z,74.59
2022-10-23T15:09:39.691Z,74.82
2022-10-23T15:12:11.246Z,75.03
2022-10-23T15:14:40.398Z,75.03
2022-10-23T15:17:09.777Z,75.01
2022-10-23T15:19:40.813Z,74.91
2022-10-23T15:22:13.091Z,75.12
2022-10-23T15:24:40.849Z,75.35
2022-10-23T15:29:37.336Z,75.30
2022-10-23T15:32:11.444Z,75.51
2022-10-23T15:34:50.563Z,74.77
2022-10-23T15:37:21.479Z,75.42
2022-10-23T15:39:49.345Z,75.70
2022-10-23T15:42:20.164Z,76.02
2022-10-23T15:44:50.614Z,75.74
2022-10-23T15:47:20.239Z,76.08
2022-10-23T15:49:47.990Z,76.54
2022-10-23T15:52:19.016Z,75.96
2022-10-23T15:54:47.003Z,76.03
2022-10-23T15:57:17.123Z,75.90
2022-10-23T15:59:45.024Z,76.19
2022-10-23T16:02:13.280Z,76.34
2022-10-23T16:04:42.659Z,76.24
2022-10-23T16:07:11.387Z,76.16
2022-10-23T16:09:39.225Z,76.34
2022-10-23T16:12:08.125Z,76.33
2022-10-23T16:14:45.067Z,76.58
2022-10-23T16:19:48.333Z,76.39
2022-10-23T16:22:17.492Z,76.88
2022-10-23T16:24:45.252Z,76.89
2022-10-23T16:27:13.342Z,76.48
2022-10-23T16:29:41.205Z,76.24
2022-10-23T16:32:09.065Z,76.08
2022-10-23T16:34:37.869Z,76.10
2022-10-23T16:37:07.228Z,75.90
2022-10-23T16:39:54.734Z,75.81
2022-10-23T16:43:07.809Z,75.84
2022-10-23T16:46:08.116Z,76.21
2022-10-23T16:48:36.761Z,76.20
2022-10-23T16:51:07.291Z,75.85
2022-10-23T16:53:39.880Z,76.19
2022-10-23T16:56:10.262Z,76.17
2022-10-23T16:58:40.827Z,76.68
2022-10-23T17:01:10.526Z,76.68
2022-10-23T17:03:43.794Z,76.69
2022-10-23T17:06:14.784Z,76.79
2022-10-23T17:08:52.543Z,76.70
2022-10-23T17:11:22.108Z,76.82
2022-10-23T17:13:55.175Z,76.67
2022-10-23T17:16:28.321Z,76.69
2022-10-23T17:18:56.542Z,77.04
2022-10-23T17:21:24.971Z,77.10
2022-10-23T17:23:54.101Z,77.12
2022-10-23T17:26:27.738Z,76.62
2022-10-23T17:28:55.753Z,77.07
2022-10-23T17:31:25.658Z,76.93
2022-10-23T17:33:56.843Z,77.10
2022-10-23T17:36:25.127Z,76.84
2022-10-23T17:38:54.565Z,77.08
2022-10-23T17:41:29.044Z,77.15
2022-10-23T17:43:57.713Z,77.21
2022-10-23T17:46:29.646Z,76.77
2022-10-23T17:48:58.122Z,76.97
2022-10-23T17:51:34.420Z,76.89
2022-10-23T17:54:05.702Z,76.63
2022-10-23T17:56:34.856Z,76.30
2022-10-23T17:59:05.973Z,76.63
2022-10-23T18:01:33.958Z,75.86
2022-10-23T18:04:03.974Z,75.92
2022-10-23T18:06:35.262Z,76.12
2022-10-23T18:09:06.708Z,75.77
2022-10-23T18:11:36.693Z,75.92
2022-10-23T18:14:08.380Z,75.98
2022-10-23T18:16:37.855Z,76.01
2022-10-23T18:19:06.074Z,75.79
2022-10-23T18:21:34.753Z,76.22
2022-10-23T18:24:14.203Z,76.14
2022-10-23T18:26:43.080Z,76.63
2022-10-23T18:29:12.667Z,76.60
2022-10-23T18:31:40.905Z,76.77
2022-10-23T18:34:13.213Z,77.16
2022-10-23T18:36:41.662Z,77.22
2022-10-23T18:39:15.387Z,77.30
2022-10-23T18:41:46.050Z,77.28
2022-10-23T18:44:17.223Z,77.18
2022-10-23T18:46:45.549Z,77.46
2022-10-23T18:49:13.866Z,78.04
2022-10-23T18:51:42.211Z,78.15
2022-10-23T18:54:15.001Z,77.74
2022-10-23T18:56:46.425Z,78.19
2022-10-23T18:59:16.279Z,77.98
2022-10-23T19:01:50.853Z,78.52
2022-10-23T19:04:19.218Z,78.66
2022-10-23T19:06:48.542Z,78.51
2022-10-23T19:09:18.420Z,78.53
2022-10-23T19:11:49.082Z,78.56
2022-10-23T19:14:16.870Z,78.89
2022-10-23T19:16:54.253Z,78.89
2022-10-23T19:19:25.510Z,78.45
2022-10-23T19:21:54.957Z,78.65
2022-10-23T19:24:33.593Z,78.28
2022-10-23T19:27:02.755Z,78.43
2022-10-23T19:29:31.260Z,78.14
2022-10-23T19:32:05.468Z,78.43
2022-10-23T19:34:33.287Z,78.44
2022-10-23T19:37:01.299Z,78.83
2022-10-23T19:39:33.322Z,79.05
2022-10-23T19:42:01.400Z,79.20
2022-10-23T19:44:29.576Z,79.32
2022-10-23T19:46:57.478Z,79.08
2022-10-23T19:49:25.206Z,79.66
2022-10-23T19:52:01.313Z,79.91
2022-10-23T19:54:30.943Z,79.76
2022-10-23T19:56:58.726Z,80.05
2022-10-23T19:59:26.699Z,80.14
2022-10-23T20:01:54.718Z,80.14
2022-10-23T20:04:22.692Z,80.66
2022-10-23T20:06:50.557Z,80.29
2022-10-23T20:09:18.294Z,80.81
2022-10-23T20:11:49.193Z,80.81
2022-10-23T20:14:20.232Z,80.42
2022-10-23T20:16:54.951Z,80.86
2022-10-23T20:19:23.859Z,80.70
2022-10-23T20:21:54.339Z,81.12
2022-10-23T20:24:22.813Z,81.09
2022-10-23T20:26:54.727Z,81.33
2022-10-23T20:29:37.353Z,81.60
2022-10-23T20:32:05.428Z,81.82
2022-10-23T20:34:33.514Z,82.22
2022-10-23T20:37:01.746Z,81.91
2022-10-23T20:39:35.561Z,81.73
2022-10-23T20:42:05.308Z,81.74
2022-10-23T20:44:38.157Z,81.49
2022-10-23T20:47:06.039Z,81.48
2022-10-23T20:49:33.774Z,81.55
2022-10-23T20:52:02.758Z,81.32
2022-10-23T20:54:31.726Z,81.50
2022-10-23T20:56:59.823Z,81.19
2022-10-23T20:59:31.245Z,81.42
2022-10-23T21:02:05.164Z,81.01
2022-10-23T21:04:33.437Z,81.47
2022-10-23T21:07:09.856Z,81.31
2022-10-23T21:09:38.768Z,81.04
2022-10-23T21:12:10.260Z,80.91
2022-10-23T21:14:39.640Z,81.29
2022-10-23T21:17:16.704Z,81.14
2022-10-23T21:19:52.201Z,81.04
2022-10-23T21:22:20.104Z,81.43
2022-10-23T21:24:48.150Z,81.37
2022-10-23T21:27:16.206Z,81.86
2022-10-23T21:29:47.871Z,82.03
2022-10-23T21:32:15.734Z,81.93
2022-10-23T21:34:43.654Z,81.91
2022-10-23T21:37:13.468Z,81.94
2022-10-23T21:39:42.450Z,82.33
2022-10-23T21:42:20.170Z,82.16
2022-10-23T21:44:49.351Z,82.63
2022-10-23T21:47:17.584Z,82.73
2022-10-23T21:49:45.637Z,82.19
2022-10-23T21:52:19.052Z,82.69
2022-10-23T21:54:52.815Z,82.25
2022-10-23T21:57:23.916Z,82.74
2022-10-23T21:59:55.536Z,82.64
2022-10-23T22:02:26.324Z,82.87
2022-10-23T22:04:54.334Z,82.53
2022-10-23T22:07:22.202Z,82.53
2022-10-23T22:10:17.653Z,82.55
2022-10-23T22:12:48.174Z,82.66
2022-10-23T22:15:17.601Z,82.48
2022-10-23T22:17:45.748Z,82.41
2022-10-23T22:20:13.770Z,82.55
2022-10-23T22:22:44.712Z,82.28
2022-10-23T22:25:12.460Z,82.55
2022-10-23T22:30:23.516Z,82.57
2022-10-23T22:32:51.339Z,82.78
2022-10-23T22:35:20.728Z,82.53
2022-10-23T22:37:51.600Z,82.58
2022-10-23T22:40:19.441Z,82.91
2022-10-23T22:42:47.377Z,82.75
2022-10-23T22:45:15.294Z,82.94
2022-10-23T22:47:49.276Z,82.92
2022-10-23T22:50:17.734Z,82.31
2022-10-23T22:52:45.756Z,82.52
2022-10-23T22:55:14.012Z,82.55
2022-10-23T22:57:42.093Z,82.48
2022-10-23T23:00:11.190Z,82.26
2022-10-23T23:02:38.909Z,82.19
2022-10-23T23:05:20.217Z,82.51
2022-10-23T23:07:47.949Z,82.83
2022-10-23T23:10:15.931Z,82.63
2022-10-23T23:12:43.675Z,83.20
2022-10-23T23:15:11.760Z,82.97
2022-10-23T23:17:39.516Z,82.95
2022-10-23T23:20:08.011Z,82.81
2022-10-23T23:22:39.913Z,82.61
2022-10-23T23:25:12.942Z,83.12
2022-10-23T23:27:41.228Z,82.82
2022-10-23T23:30:10.501Z,83.24
2022-10-23T23:32:41.366Z,83.14
2022-10-23T23:35:10.041Z,82.56
2022-10-23T23:37:39.122Z,82.63
2022-10-23T23:40:08.526Z,82.58
2022-10-23T23:42:36.580Z,82.52
2022-10-23T23:45:14.249Z,82.66
2022-10-23T23:47:43.139Z,82.17
2022-10-23T23:50:17.446Z,82.04
2022-10-23T23:52:48.695Z,81.67
2022-10-23T23:55:16.739Z,81.51
2022-10-23T23:57:44.654Z,81.36
